sensor_id;sensor_type;location;lat;lon;timestamp;temperature;humidity
21625;DHT22;10974;51.034;3.744;2022-08-11T00:00:38;25.00;1.00
21625;DHT22;10974;51.034;3.744;2022-08-11T00:03:06;25.00;1.00
21625;DHT22;10974;51.034;3.744;2022-08-11T00:05:42;25.00;1.00
21625;DHT22;10974;51.034;3.744;2022-08-11T00:08:09;25.00;1.00
21625;DHT22;10974;51.034;3.744;2022-08-11T00:10:36;25.00;1.00
21625;DHT22;10974;51.034;3.744;2022-08-11T00:13:04;25.00;1.00
21625;DHT22;10974;51.034;3.744;2022-08-11T00:15:42;24.90;1.00
21625;DHT22;10974;51.034;3.744;2022-08-11T00:18:08;24.90;1.00
21625;DHT22;10974;51.034;3.744;2022-08-11T00:20:37;24.90;1.00
21625;DHT22;10974;51.034;3.744;2022-08-11T00:23:22;24.90;1.00
21625;DHT22;10974;51.034;3.744;2022-08-11T00:25:50;24.80;1.00
21625;DHT22;10974;51.034;3.744;2022-08-11T00:28:32;24.80;1.00
21625;DHT22;10974;51.034;3.744;2022-08-11T00:31:02;24.80;1.00
21625;DHT22;10974;51.034;3.744;2022-08-11T00:36:00;24.70;1.00
21625;DHT22;10974;51.034;3.744;2022-08-11T00:38:32;24.70;1.00
21625;DHT22;10974;51.034;3.744;2022-08-11T00:43:55;24.70;1.00
21625;DHT22;10974;51.034;3.744;2022-08-11T00:52:09;24.70;1.00
21625;DHT22;10974;51.034;3.744;2022-08-11T01:32:25;24.40;1.00
21625;DHT22;10974;51.034;3.744;2022-08-11T01:52:14;24.30;1.00
21625;DHT22;10974;51.034;3.744;2022-08-11T01:54:43;24.30;1.00
21625;DHT22;10974;51.034;3.744;2022-08-11T01:57:35;24.30;1.00
21625;DHT22;10974;51.034;3.744;2022-08-11T02:00:09;24.30;1.00
21625;DHT22;10974;51.034;3.744;2022-08-11T02:03:11;24.20;1.00
21625;DHT22;10974;51.034;3.744;2022-08-11T02:06:03;24.20;1.00
21625;DHT22;10974;51.034;3.744;2022-08-11T02:09:06;24.20;1.00
21625;DHT22;10974;51.034;3.744;2022-08-11T02:11:35;24.20;1.00
21625;DHT22;10974;51.034;3.744;2022-08-11T02:22:35;24.10;1.00
21625;DHT22;10974;51.034;3.744;2022-08-11T02:25:45;24.10;1.00
21625;DHT22;10974;51.034;3.744;2022-08-11T02:28:23;24.10;1.00
21625;DHT22;10974;51.034;3.744;2022-08-11T02:33:42;24.10;1.00
21625;DHT22;10974;51.034;3.744;2022-08-11T02:36:17;24.10;1.00
21625;DHT22;10974;51.034;3.744;2022-08-11T02:38:54;24.00;1.00
21625;DHT22;10974;51.034;3.744;2022-08-11T02:41:32;24.00;1.00
21625;DHT22;10974;51.034;3.744;2022-08-11T02:47:22;24.00;1.00
21625;DHT22;10974;51.034;3.744;2022-08-11T02:55:46;23.90;1.00
21625;DHT22;10974;51.034;3.744;2022-08-11T03:10:24;23.80;1.00
21625;DHT22;10974;51.034;3.744;2022-08-11T03:12:52;23.80;1.00
21625;DHT22;10974;51.034;3.744;2022-08-11T03:15:55;23.80;1.00
21625;DHT22;10974;51.034;3.744;2022-08-11T03:18:55;23.80;1.00
21625;DHT22;10974;51.034;3.744;2022-08-11T03:21:31;23.80;1.00
21625;DHT22;10974;51.034;3.744;2022-08-11T03:24:10;23.80;1.00
21625;DHT22;10974;51.034;3.744;2022-08-11T03:27:02;23.80;1.00
21625;DHT22;10974;51.034;3.744;2022-08-11T03:32:32;23.80;1.00
21625;DHT22;10974;51.034;3.744;2022-08-11T03:35:02;23.70;1.00
21625;DHT22;10974;51.034;3.744;2022-08-11T03:46:33;23.60;1.00
21625;DHT22;10974;51.034;3.744;2022-08-11T03:52:06;23.50;1.00
21625;DHT22;10974;51.034;3.744;2022-08-11T03:55:03;23.50;1.00
21625;DHT22;10974;51.034;3.744;2022-08-11T04:09:19;23.40;1.00
21625;DHT22;10974;51.034;3.744;2022-08-11T04:14:50;23.20;1.00
21625;DHT22;10974;51.034;3.744;2022-08-11T04:21:40;23.00;1.00
21625;DHT22;10974;51.034;3.744;2022-08-11T04:34:57;22.70;1.00
21625;DHT22;10974;51.034;3.744;2022-08-11T04:37:46;22.60;1.00
21625;DHT22;10974;51.034;3.744;2022-08-11T04:40:47;22.50;1.00
21625;DHT22;10974;51.034;3.744;2022-08-11T04:51:45;22.40;1.00
21625;DHT22;10974;51.034;3.744;2022-08-11T04:55:01;22.40;1.00
21625;DHT22;10974;51.034;3.744;2022-08-11T05:01:15;19.30;99.90
21625;DHT22;10974;51.034;3.744;2022-08-11T05:10:09;19.00;1.00
21625;DHT22;10974;51.034;3.744;2022-08-11T05:12:50;19.00;1.00
21625;DHT22;10974;51.034;3.744;2022-08-11T05:15:28;18.90;68.40
21625;DHT22;10974;51.034;3.744;2022-08-11T05:18:16;19.00;99.90
21625;DHT22;10974;51.034;3.744;2022-08-11T05:21:06;19.00;1.00
21625;DHT22;10974;51.034;3.744;2022-08-11T05:24:22;19.10;1.00
21625;DHT22;10974;51.034;3.744;2022-08-11T05:27:09;19.10;99.90
21625;DHT22;10974;51.034;3.744;2022-08-11T05:32:45;19.30;99.90
21625;DHT22;10974;51.034;3.744;2022-08-11T05:35:44;19.30;1.00
21625;DHT22;10974;51.034;3.744;2022-08-11T05:38:19;19.30;1.00
21625;DHT22;10974;51.034;3.744;2022-08-11T05:41:05;19.30;1.00
21625;DHT22;10974;51.034;3.744;2022-08-11T05:43:50;19.40;1.00
21625;DHT22;10974;51.034;3.744;2022-08-11T05:46:40;19.50;1.00
21625;DHT22;10974;51.034;3.744;2022-08-11T05:49:29;19.50;1.00
21625;DHT22;10974;51.034;3.744;2022-08-11T05:52:15;19.70;99.90
21625;DHT22;10974;51.034;3.744;2022-08-11T05:55:02;19.50;1.00
21625;DHT22;10974;51.034;3.744;2022-08-11T05:57:48;19.70;1.00
21625;DHT22;10974;51.034;3.744;2022-08-11T06:00:14;19.80;1.00
21625;DHT22;10974;51.034;3.744;2022-08-11T06:02:53;20.10;99.90
21625;DHT22;10974;51.034;3.744;2022-08-11T06:05:22;20.70;1.00
21625;DHT22;10974;51.034;3.744;2022-08-11T06:07:49;21.20;99.90
21625;DHT22;10974;51.034;3.744;2022-08-11T06:10:31;21.60;99.90
21625;DHT22;10974;51.034;3.744;2022-08-11T06:12:58;21.80;99.90
21625;DHT22;10974;51.034;3.744;2022-08-11T06:15:27;22.10;96.60
21625;DHT22;10974;51.034;3.744;2022-08-11T06:17:54;22.20;1.00
21625;DHT22;10974;51.034;3.744;2022-08-11T06:20:21;22.30;1.00
21625;DHT22;10974;51.034;3.744;2022-08-11T06:22:56;22.40;1.00
21625;DHT22;10974;51.034;3.744;2022-08-11T06:25:29;22.60;99.90
21625;DHT22;10974;51.034;3.744;2022-08-11T06:27:56;22.60;99.90
21625;DHT22;10974;51.034;3.744;2022-08-11T06:30:54;22.70;99.90
21625;DHT22;10974;51.034;3.744;2022-08-11T06:33:30;22.90;99.90
21625;DHT22;10974;51.034;3.744;2022-08-11T06:39:01;22.80;99.90
21625;DHT22;10974;51.034;3.744;2022-08-11T06:42:12;22.90;99.90
21625;DHT22;10974;51.034;3.744;2022-08-11T06:44:32;23.00;93.00
21625;DHT22;10974;51.034;3.744;2022-08-11T06:47:11;22.90;17.70
21625;DHT22;10974;51.034;3.744;2022-08-11T06:49:46;22.90;18.40
21625;DHT22;10974;51.034;3.744;2022-08-11T06:52:34;23.00;37.50
21625;DHT22;10974;51.034;3.744;2022-08-11T06:55:09;23.10;16.60
21625;DHT22;10974;51.034;3.744;2022-08-11T06:57:37;23.10;1.00
21625;DHT22;10974;51.034;3.744;2022-08-11T07:00:23;23.10;1.00
21625;DHT22;10974;51.034;3.744;2022-08-11T07:05:38;23.30;1.00
21625;DHT22;10974;51.034;3.744;2022-08-11T07:14:37;23.50;1.00
21625;DHT22;10974;51.034;3.744;2022-08-11T07:17:25;23.50;1.00
21625;DHT22;10974;51.034;3.744;2022-08-11T07:19:54;23.50;1.00
21625;DHT22;10974;51.034;3.744;2022-08-11T07:22:40;23.50;1.00
21625;DHT22;10974;51.034;3.744;2022-08-11T07:25:27;23.60;1.00
21625;DHT22;10974;51.034;3.744;2022-08-11T07:28:24;23.70;1.00
21625;DHT22;10974;51.034;3.744;2022-08-11T07:31:13;23.70;1.00
21625;DHT22;10974;51.034;3.744;2022-08-11T07:33:49;23.70;1.00
21625;DHT22;10974;51.034;3.744;2022-08-11T07:36:17;23.70;1.00
21625;DHT22;10974;51.034;3.744;2022-08-11T07:38:53;23.70;1.00
21625;DHT22;10974;51.034;3.744;2022-08-11T07:41:24;23.70;1.00
21625;DHT22;10974;51.034;3.744;2022-08-11T07:43:54;23.80;1.00
21625;DHT22;10974;51.034;3.744;2022-08-11T07:46:20;23.80;1.00
21625;DHT22;10974;51.034;3.744;2022-08-11T07:49:07;23.90;1.00
21625;DHT22;10974;51.034;3.744;2022-08-11T07:51:53;24.00;1.00
21625;DHT22;10974;51.034;3.744;2022-08-11T07:54:38;24.00;1.00
21625;DHT22;10974;51.034;3.744;2022-08-11T07:57:07;24.00;1.00
21625;DHT22;10974;51.034;3.744;2022-08-11T07:59:52;24.10;1.00
21625;DHT22;10974;51.034;3.744;2022-08-11T08:02:39;24.10;1.00
21625;DHT22;10974;51.034;3.744;2022-08-11T08:05:23;24.10;1.00
21625;DHT22;10974;51.034;3.744;2022-08-11T08:08:09;24.20;1.00
21625;DHT22;10974;51.034;3.744;2022-08-11T08:10:55;24.20;1.00
21625;DHT22;10974;51.034;3.744;2022-08-11T08:13:41;24.30;1.00
21625;DHT22;10974;51.034;3.744;2022-08-11T08:16:26;24.30;1.00
21625;DHT22;10974;51.034;3.744;2022-08-11T08:19:15;24.30;1.00
21625;DHT22;10974;51.034;3.744;2022-08-11T08:21:42;24.40;1.00
21625;DHT22;10974;51.034;3.744;2022-08-11T08:24:08;24.40;1.00
21625;DHT22;10974;51.034;3.744;2022-08-11T08:26:35;24.40;1.00
21625;DHT22;10974;51.034;3.744;2022-08-11T08:29:20;24.50;1.00
21625;DHT22;10974;51.034;3.744;2022-08-11T08:32:06;24.60;1.00
21625;DHT22;10974;51.034;3.744;2022-08-11T08:34:34;24.60;1.00
21625;DHT22;10974;51.034;3.744;2022-08-11T08:37:01;24.70;1.00
21625;DHT22;10974;51.034;3.744;2022-08-11T08:39:27;24.70;1.00
21625;DHT22;10974;51.034;3.744;2022-08-11T08:41:55;24.70;1.00
21625;DHT22;10974;51.034;3.744;2022-08-11T08:44:22;24.80;1.00
21625;DHT22;10974;51.034;3.744;2022-08-11T08:46:53;24.80;1.00
21625;DHT22;10974;51.034;3.744;2022-08-11T08:49:24;24.90;1.00
21625;DHT22;10974;51.034;3.744;2022-08-11T08:51:54;25.00;99.90
21625;DHT22;10974;51.034;3.744;2022-08-11T08:54:33;25.00;1.00
21625;DHT22;10974;51.034;3.744;2022-08-11T08:57:03;25.10;99.90
21625;DHT22;10974;51.034;3.744;2022-08-11T08:59:31;25.00;99.90
21625;DHT22;10974;51.034;3.744;2022-08-11T09:02:00;25.10;99.90
21625;DHT22;10974;51.034;3.744;2022-08-11T09:04:26;25.10;99.90
21625;DHT22;10974;51.034;3.744;2022-08-11T09:06:55;25.20;99.90
21625;DHT22;10974;51.034;3.744;2022-08-11T09:09:21;25.20;99.90
21625;DHT22;10974;51.034;3.744;2022-08-11T09:11:48;25.20;99.90
21625;DHT22;10974;51.034;3.744;2022-08-11T09:14:24;25.30;99.90
21625;DHT22;10974;51.034;3.744;2022-08-11T09:17:10;25.40;99.90
21625;DHT22;10974;51.034;3.744;2022-08-11T09:19:36;25.40;99.90
21625;DHT22;10974;51.034;3.744;2022-08-11T09:22:02;25.40;99.90
21625;DHT22;10974;51.034;3.744;2022-08-11T09:24:47;25.40;99.90
21625;DHT22;10974;51.034;3.744;2022-08-11T09:27:32;25.60;99.90
21625;DHT22;10974;51.034;3.744;2022-08-11T09:29:59;25.60;99.90
21625;DHT22;10974;51.034;3.744;2022-08-11T09:32:25;25.80;99.90
21625;DHT22;10974;51.034;3.744;2022-08-11T09:34:53;25.90;99.90
21625;DHT22;10974;51.034;3.744;2022-08-11T09:37:20;25.90;99.90
21625;DHT22;10974;51.034;3.744;2022-08-11T09:40:06;25.80;99.90
21625;DHT22;10974;51.034;3.744;2022-08-11T09:42:50;25.90;99.90
21625;DHT22;10974;51.034;3.744;2022-08-11T09:45:35;26.00;99.90
21625;DHT22;10974;51.034;3.744;2022-08-11T09:48:02;26.10;99.90
21625;DHT22;10974;51.034;3.744;2022-08-11T09:50:31;26.00;99.90
21625;DHT22;10974;51.034;3.744;2022-08-11T09:52:58;25.90;99.90
21625;DHT22;10974;51.034;3.744;2022-08-11T09:55:24;25.90;99.90
21625;DHT22;10974;51.034;3.744;2022-08-11T09:57:52;26.20;99.90
21625;DHT22;10974;51.034;3.744;2022-08-11T10:00:36;27.00;99.90
21625;DHT22;10974;51.034;3.744;2022-08-11T10:03:05;26.80;99.90
21625;DHT22;10974;51.034;3.744;2022-08-11T10:05:32;26.70;99.90
21625;DHT22;10974;51.034;3.744;2022-08-11T10:08:17;27.10;99.90
21625;DHT22;10974;51.034;3.744;2022-08-11T10:10:45;27.40;99.90
21625;DHT22;10974;51.034;3.744;2022-08-11T10:13:19;26.90;99.90
21625;DHT22;10974;51.034;3.744;2022-08-11T10:15:55;26.90;99.90
21625;DHT22;10974;51.034;3.744;2022-08-11T10:18:34;27.10;99.90
21625;DHT22;10974;51.034;3.744;2022-08-11T10:24:01;26.90;99.90
21625;DHT22;10974;51.034;3.744;2022-08-11T10:26:47;28.00;99.90
21625;DHT22;10974;51.034;3.744;2022-08-11T10:29:25;28.40;1.10
21625;DHT22;10974;51.034;3.744;2022-08-11T10:32:10;27.90;1.00
21625;DHT22;10974;51.034;3.744;2022-08-11T10:34:56;28.10;1.00
21625;DHT22;10974;51.034;3.744;2022-08-11T10:37:24;28.70;1.00
21625;DHT22;10974;51.034;3.744;2022-08-11T10:39:51;28.70;1.00
21625;DHT22;10974;51.034;3.744;2022-08-11T10:42:18;28.90;1.00
21625;DHT22;10974;51.034;3.744;2022-08-11T10:45:04;28.70;1.00
21625;DHT22;10974;51.034;3.744;2022-08-11T10:47:55;28.40;1.00
21625;DHT22;10974;51.034;3.744;2022-08-11T10:50:22;28.00;1.00
21625;DHT22;10974;51.034;3.744;2022-08-11T10:53:08;27.80;1.00
21625;DHT22;10974;51.034;3.744;2022-08-11T10:55:52;27.90;1.00
21625;DHT22;10974;51.034;3.744;2022-08-11T10:58:37;27.60;1.00
21625;DHT22;10974;51.034;3.744;2022-08-11T11:01:34;27.60;1.00
21625;DHT22;10974;51.034;3.744;2022-08-11T11:04:17;27.30;1.00
21625;DHT22;10974;51.034;3.744;2022-08-11T11:11:52;27.60;1.00
21625;DHT22;10974;51.034;3.744;2022-08-11T11:14:40;27.50;1.00
21625;DHT22;10974;51.034;3.744;2022-08-11T11:17:42;27.60;1.00
21625;DHT22;10974;51.034;3.744;2022-08-11T11:24:06;27.50;1.00
21625;DHT22;10974;51.034;3.744;2022-08-11T11:26:28;28.00;1.00
21625;DHT22;10974;51.034;3.744;2022-08-11T11:29:25;28.70;1.00
21625;DHT22;10974;51.034;3.744;2022-08-11T11:37:14;28.40;1.00
21625;DHT22;10974;51.034;3.744;2022-08-11T11:39:42;29.00;1.00
21625;DHT22;10974;51.034;3.744;2022-08-11T11:42:09;29.50;1.00
21625;DHT22;10974;51.034;3.744;2022-08-11T11:44:37;29.40;1.00
21625;DHT22;10974;51.034;3.744;2022-08-11T11:47:03;29.70;1.00
21625;DHT22;10974;51.034;3.744;2022-08-11T11:49:30;29.70;1.00
21625;DHT22;10974;51.034;3.744;2022-08-11T11:51:58;29.00;1.00
21625;DHT22;10974;51.034;3.744;2022-08-11T11:54:29;28.80;1.00
21625;DHT22;10974;51.034;3.744;2022-08-11T11:56:56;29.30;1.00
21625;DHT22;10974;51.034;3.744;2022-08-11T11:59:43;29.80;1.00
21625;DHT22;10974;51.034;3.744;2022-08-11T12:02:27;29.50;1.00
21625;DHT22;10974;51.034;3.744;2022-08-11T12:04:54;29.40;1.00
21625;DHT22;10974;51.034;3.744;2022-08-11T12:07:20;28.90;1.00
21625;DHT22;10974;51.034;3.744;2022-08-11T12:10:14;29.40;1.00
21625;DHT22;10974;51.034;3.744;2022-08-11T12:12:41;29.40;1.00
21625;DHT22;10974;51.034;3.744;2022-08-11T12:15:25;29.40;1.00
21625;DHT22;10974;51.034;3.744;2022-08-11T12:17:51;29.40;1.00
21625;DHT22;10974;51.034;3.744;2022-08-11T12:20:18;29.60;1.00
21625;DHT22;10974;51.034;3.744;2022-08-11T12:22:46;29.10;1.00
21625;DHT22;10974;51.034;3.744;2022-08-11T12:25:32;29.30;1.00
21625;DHT22;10974;51.034;3.744;2022-08-11T12:28:17;30.20;1.00
21625;DHT22;10974;51.034;3.744;2022-08-11T12:30:44;31.10;1.00
21625;DHT22;10974;51.034;3.744;2022-08-11T12:33:12;30.30;1.00
21625;DHT22;10974;51.034;3.744;2022-08-11T12:35:39;30.60;1.00
21625;DHT22;10974;51.034;3.744;2022-08-11T12:38:06;30.20;1.00
21625;DHT22;10974;51.034;3.744;2022-08-11T12:40:33;29.60;1.00
21625;DHT22;10974;51.034;3.744;2022-08-11T12:43:20;29.30;1.00
21625;DHT22;10974;51.034;3.744;2022-08-11T12:46:15;28.80;1.00
21625;DHT22;10974;51.034;3.744;2022-08-11T12:48:48;29.20;1.00
21625;DHT22;10974;51.034;3.744;2022-08-11T12:51:38;28.80;1.00
21625;DHT22;10974;51.034;3.744;2022-08-11T12:57:12;28.30;1.00
21625;DHT22;10974;51.034;3.744;2022-08-11T12:59:59;28.40;1.00
21625;DHT22;10974;51.034;3.744;2022-08-11T13:02:45;29.10;1.00
21625;DHT22;10974;51.034;3.744;2022-08-11T13:05:31;28.90;1.00
21625;DHT22;10974;51.034;3.744;2022-08-11T13:08:00;29.40;1.00
21625;DHT22;10974;51.034;3.744;2022-08-11T13:10:28;29.30;1.00
21625;DHT22;10974;51.034;3.744;2022-08-11T13:13:20;29.20;1.00
21625;DHT22;10974;51.034;3.744;2022-08-11T13:15:47;29.30;1.00
21625;DHT22;10974;51.034;3.744;2022-08-11T13:18:15;29.10;1.00
21625;DHT22;10974;51.034;3.744;2022-08-11T13:20:42;28.80;1.00
21625;DHT22;10974;51.034;3.744;2022-08-11T13:23:10;29.20;1.00
21625;DHT22;10974;51.034;3.744;2022-08-11T13:25:38;28.70;1.00
21625;DHT22;10974;51.034;3.744;2022-08-11T13:28:04;28.80;1.00
21625;DHT22;10974;51.034;3.744;2022-08-11T13:30:31;29.10;1.00
21625;DHT22;10974;51.034;3.744;2022-08-11T13:33:17;29.00;1.00
21625;DHT22;10974;51.034;3.744;2022-08-11T13:35:49;28.90;1.00
21625;DHT22;10974;51.034;3.744;2022-08-11T13:38:18;28.80;1.00
21625;DHT22;10974;51.034;3.744;2022-08-11T13:40:48;29.90;1.00
21625;DHT22;10974;51.034;3.744;2022-08-11T13:43:15;29.60;1.00
21625;DHT22;10974;51.034;3.744;2022-08-11T13:45:42;29.10;1.00
21625;DHT22;10974;51.034;3.744;2022-08-11T13:48:09;29.00;1.00
21625;DHT22;10974;51.034;3.744;2022-08-11T13:50:36;29.50;1.00
21625;DHT22;10974;51.034;3.744;2022-08-11T13:53:23;29.40;1.00
21625;DHT22;10974;51.034;3.744;2022-08-11T13:55:49;29.30;1.00
21625;DHT22;10974;51.034;3.744;2022-08-11T13:58:15;29.00;1.00
21625;DHT22;10974;51.034;3.744;2022-08-11T14:00:45;29.20;1.00
21625;DHT22;10974;51.034;3.744;2022-08-11T14:03:13;29.20;1.00
21625;DHT22;10974;51.034;3.744;2022-08-11T14:05:47;29.60;1.00
21625;DHT22;10974;51.034;3.744;2022-08-11T14:08:16;29.40;1.00
21625;DHT22;10974;51.034;3.744;2022-08-11T14:10:44;29.10;1.00
21625;DHT22;10974;51.034;3.744;2022-08-11T14:13:32;29.40;1.00
21625;DHT22;10974;51.034;3.744;2022-08-11T14:16:10;29.10;1.00
21625;DHT22;10974;51.034;3.744;2022-08-11T14:18:42;28.80;1.00
21625;DHT22;10974;51.034;3.744;2022-08-11T14:21:10;28.50;1.00
21625;DHT22;10974;51.034;3.744;2022-08-11T14:23:56;28.90;1.00
21625;DHT22;10974;51.034;3.744;2022-08-11T14:26:24;28.80;1.00
21625;DHT22;10974;51.034;3.744;2022-08-11T14:31:34;28.30;1.00
21625;DHT22;10974;51.034;3.744;2022-08-11T14:34:04;28.40;1.00
21625;DHT22;10974;51.034;3.744;2022-08-11T14:36:38;28.60;1.00
21625;DHT22;10974;51.034;3.744;2022-08-11T14:39:08;28.50;1.00
21625;DHT22;10974;51.034;3.744;2022-08-11T14:41:42;28.40;1.00
21625;DHT22;10974;51.034;3.744;2022-08-11T14:44:27;28.40;1.00
21625;DHT22;10974;51.034;3.744;2022-08-11T14:47:12;28.50;1.00
21625;DHT22;10974;51.034;3.744;2022-08-11T14:49:42;28.90;1.00
21625;DHT22;10974;51.034;3.744;2022-08-11T14:52:10;29.20;1.00
21625;DHT22;10974;51.034;3.744;2022-08-11T14:54:42;29.10;1.00
21625;DHT22;10974;51.034;3.744;2022-08-11T14:57:26;28.80;1.00
21625;DHT22;10974;51.034;3.744;2022-08-11T14:59:54;28.70;1.00
21625;DHT22;10974;51.034;3.744;2022-08-11T15:02:21;29.20;1.00
21625;DHT22;10974;51.034;3.744;2022-08-11T15:05:06;29.20;1.00
21625;DHT22;10974;51.034;3.744;2022-08-11T15:07:33;29.40;1.00
21625;DHT22;10974;51.034;3.744;2022-08-11T15:10:01;29.60;1.00
21625;DHT22;10974;51.034;3.744;2022-08-11T15:12:29;29.60;1.00
21625;DHT22;10974;51.034;3.744;2022-08-11T15:14:55;29.30;1.00
21625;DHT22;10974;51.034;3.744;2022-08-11T15:17:41;29.20;1.00
21625;DHT22;10974;51.034;3.744;2022-08-11T15:20:14;29.20;1.00
21625;DHT22;10974;51.034;3.744;2022-08-11T15:22:59;29.00;1.00
21625;DHT22;10974;51.034;3.744;2022-08-11T15:25:52;28.80;1.00
21625;DHT22;10974;51.034;3.744;2022-08-11T15:28:20;29.20;1.00
21625;DHT22;10974;51.034;3.744;2022-08-11T15:31:06;29.20;1.00
21625;DHT22;10974;51.034;3.744;2022-08-11T15:34:00;28.90;1.00
21625;DHT22;10974;51.034;3.744;2022-08-11T15:36:47;28.80;1.00
21625;DHT22;10974;51.034;3.744;2022-08-11T15:39:51;28.70;1.00
21625;DHT22;10974;51.034;3.744;2022-08-11T15:42:53;28.60;1.00
21625;DHT22;10974;51.034;3.744;2022-08-11T15:45:40;28.80;1.00
21625;DHT22;10974;51.034;3.744;2022-08-11T15:48:19;28.80;1.00
21625;DHT22;10974;51.034;3.744;2022-08-11T15:50:49;28.80;1.00
21625;DHT22;10974;51.034;3.744;2022-08-11T15:55:58;28.80;1.00
21625;DHT22;10974;51.034;3.744;2022-08-11T15:58:27;28.70;1.00
21625;DHT22;10974;51.034;3.744;2022-08-11T16:01:13;28.80;1.00
21625;DHT22;10974;51.034;3.744;2022-08-11T16:04:05;28.70;1.00
21625;DHT22;10974;51.034;3.744;2022-08-11T16:06:46;28.90;1.00
21625;DHT22;10974;51.034;3.744;2022-08-11T16:09:15;28.70;1.00
21625;DHT22;10974;51.034;3.744;2022-08-11T16:11:42;28.70;1.00
21625;DHT22;10974;51.034;3.744;2022-08-11T16:14:11;28.60;1.00
21625;DHT22;10974;51.034;3.744;2022-08-11T16:16:57;28.50;1.00
21625;DHT22;10974;51.034;3.744;2022-08-11T16:19:24;28.40;1.00
21625;DHT22;10974;51.034;3.744;2022-08-11T16:21:52;28.50;1.00
21625;DHT22;10974;51.034;3.744;2022-08-11T16:24:20;28.80;1.00
21625;DHT22;10974;51.034;3.744;2022-08-11T16:26:47;28.90;1.00
21625;DHT22;10974;51.034;3.744;2022-08-11T16:29:13;28.90;1.00
21625;DHT22;10974;51.034;3.744;2022-08-11T16:31:40;28.70;1.00
21625;DHT22;10974;51.034;3.744;2022-08-11T16:34:08;28.80;1.00
21625;DHT22;10974;51.034;3.744;2022-08-11T16:36:55;28.70;1.00
21625;DHT22;10974;51.034;3.744;2022-08-11T16:39:41;28.70;1.00
21625;DHT22;10974;51.034;3.744;2022-08-11T16:42:08;28.70;1.00
21625;DHT22;10974;51.034;3.744;2022-08-11T16:44:54;28.60;1.00
21625;DHT22;10974;51.034;3.744;2022-08-11T16:47:40;28.50;1.00
21625;DHT22;10974;51.034;3.744;2022-08-11T16:50:08;28.70;1.00
21625;DHT22;10974;51.034;3.744;2022-08-11T16:52:34;28.60;1.00
21625;DHT22;10974;51.034;3.744;2022-08-11T16:54:59;28.90;1.00
21625;DHT22;10974;51.034;3.744;2022-08-11T16:57:29;28.90;1.00
21625;DHT22;10974;51.034;3.744;2022-08-11T17:00:15;28.80;1.00
21625;DHT22;10974;51.034;3.744;2022-08-11T17:02:48;28.60;1.00
21625;DHT22;10974;51.034;3.744;2022-08-11T17:05:34;28.50;1.00
21625;DHT22;10974;51.034;3.744;2022-08-11T17:08:31;28.30;1.00
21625;DHT22;10974;51.034;3.744;2022-08-11T17:11:18;28.50;1.00
21625;DHT22;10974;51.034;3.744;2022-08-11T17:14:10;28.50;1.00
21625;DHT22;10974;51.034;3.744;2022-08-11T17:16:38;28.40;1.00
21625;DHT22;10974;51.034;3.744;2022-08-11T17:19:11;28.50;1.00
21625;DHT22;10974;51.034;3.744;2022-08-11T17:21:46;28.40;1.00
21625;DHT22;10974;51.034;3.744;2022-08-11T17:24:35;28.40;1.00
21625;DHT22;10974;51.034;3.744;2022-08-11T17:27:02;28.40;1.00
21625;DHT22;10974;51.034;3.744;2022-08-11T17:29:47;28.20;1.00
21625;DHT22;10974;51.034;3.744;2022-08-11T17:32:41;28.20;1.00
21625;DHT22;10974;51.034;3.744;2022-08-11T17:35:28;28.10;1.00
21625;DHT22;10974;51.034;3.744;2022-08-11T17:38:07;28.20;1.00
21625;DHT22;10974;51.034;3.744;2022-08-11T17:40:39;28.20;1.00
21625;DHT22;10974;51.034;3.744;2022-08-11T17:43:26;28.20;1.00
21625;DHT22;10974;51.034;3.744;2022-08-11T17:46:13;28.10;1.00
21625;DHT22;10974;51.034;3.744;2022-08-11T17:48:58;28.10;1.00
21625;DHT22;10974;51.034;3.744;2022-08-11T17:51:24;28.10;1.00
21625;DHT22;10974;51.034;3.744;2022-08-11T17:54:09;28.10;1.00
21625;DHT22;10974;51.034;3.744;2022-08-11T17:56:54;28.10;1.00
21625;DHT22;10974;51.034;3.744;2022-08-11T17:59:40;28.10;1.00
21625;DHT22;10974;51.034;3.744;2022-08-11T18:02:34;28.10;1.00
21625;DHT22;10974;51.034;3.744;2022-08-11T18:05:22;28.10;1.00
21625;DHT22;10974;51.034;3.744;2022-08-11T18:07:51;28.10;1.00
21625;DHT22;10974;51.034;3.744;2022-08-11T18:10:37;28.10;1.00
21625;DHT22;10974;51.034;3.744;2022-08-11T18:13:24;28.10;1.00
21625;DHT22;10974;51.034;3.744;2022-08-11T18:16:10;28.10;1.00
21625;DHT22;10974;51.034;3.744;2022-08-11T18:18:55;28.10;1.00
21625;DHT22;10974;51.034;3.744;2022-08-11T18:21:44;28.20;1.00
21625;DHT22;10974;51.034;3.744;2022-08-11T18:27:32;28.00;1.00
21625;DHT22;10974;51.034;3.744;2022-08-11T18:30:17;27.90;1.00
21625;DHT22;10974;51.034;3.744;2022-08-11T18:33:02;27.80;1.00
21625;DHT22;10974;51.034;3.744;2022-08-11T18:35:51;27.80;1.00
21625;DHT22;10974;51.034;3.744;2022-08-11T18:38:37;27.80;1.00
21625;DHT22;10974;51.034;3.744;2022-08-11T18:41:23;27.70;1.00
21625;DHT22;10974;51.034;3.744;2022-08-11T18:44:09;27.70;1.00
21625;DHT22;10974;51.034;3.744;2022-08-11T18:46:55;27.70;1.00
21625;DHT22;10974;51.034;3.744;2022-08-11T18:49:42;27.70;1.00
21625;DHT22;10974;51.034;3.744;2022-08-11T18:52:28;27.70;1.00
21625;DHT22;10974;51.034;3.744;2022-08-11T18:55:16;27.60;1.00
21625;DHT22;10974;51.034;3.744;2022-08-11T18:58:04;27.60;1.00
21625;DHT22;10974;51.034;3.744;2022-08-11T19:00:53;27.60;1.00
21625;DHT22;10974;51.034;3.744;2022-08-11T19:03:40;27.60;1.00
21625;DHT22;10974;51.034;3.744;2022-08-11T19:06:25;27.60;1.00
21625;DHT22;10974;51.034;3.744;2022-08-11T19:09:16;27.60;1.00
21625;DHT22;10974;51.034;3.744;2022-08-11T19:12:01;27.50;1.00
21625;DHT22;10974;51.034;3.744;2022-08-11T19:14:47;27.60;1.00
21625;DHT22;10974;51.034;3.744;2022-08-11T19:17:34;27.60;1.00
21625;DHT22;10974;51.034;3.744;2022-08-11T19:20:20;27.50;1.00
21625;DHT22;10974;51.034;3.744;2022-08-11T19:23:07;27.50;1.00
21625;DHT22;10974;51.034;3.744;2022-08-11T19:25:53;27.50;1.00
21625;DHT22;10974;51.034;3.744;2022-08-11T19:28:40;27.50;1.00
21625;DHT22;10974;51.034;3.744;2022-08-11T19:31:26;27.50;1.00
21625;DHT22;10974;51.034;3.744;2022-08-11T19:34:16;27.50;1.00
21625;DHT22;10974;51.034;3.744;2022-08-11T19:37:03;27.50;1.00
21625;DHT22;10974;51.034;3.744;2022-08-11T19:39:47;27.50;1.00
21625;DHT22;10974;51.034;3.744;2022-08-11T19:42:32;27.40;1.00
21625;DHT22;10974;51.034;3.744;2022-08-11T19:45:17;27.50;1.00
21625;DHT22;10974;51.034;3.744;2022-08-11T19:48:01;27.50;1.00
21625;DHT22;10974;51.034;3.744;2022-08-11T19:50:46;27.40;1.00
21625;DHT22;10974;51.034;3.744;2022-08-11T19:53:31;27.40;1.00
21625;DHT22;10974;51.034;3.744;2022-08-11T19:56:17;27.40;1.00
21625;DHT22;10974;51.034;3.744;2022-08-11T19:59:02;27.40;1.00
21625;DHT22;10974;51.034;3.744;2022-08-11T20:01:46;27.40;1.00
21625;DHT22;10974;51.034;3.744;2022-08-11T20:04:30;27.40;1.00
21625;DHT22;10974;51.034;3.744;2022-08-11T20:07:15;27.40;1.00
21625;DHT22;10974;51.034;3.744;2022-08-11T20:10:03;27.40;1.00
21625;DHT22;10974;51.034;3.744;2022-08-11T20:12:47;27.40;1.00
21625;DHT22;10974;51.034;3.744;2022-08-11T20:15:32;27.30;1.00
21625;DHT22;10974;51.034;3.744;2022-08-11T20:18:18;27.30;1.00